createdAt,value
2018-09-27T00:00:40.829Z,979.41
2018-09-27T00:01:50.958Z,979.48
2018-09-27T00:03:00.594Z,979.42
2018-09-27T00:04:10.184Z,979.45
2018-09-27T00:05:19.489Z,979.43
2018-09-27T00:06:29.344Z,979.42
2018-09-27T00:07:39.201Z,979.37
2018-09-27T00:08:48.828Z,979.34
2018-09-27T00:09:58.957Z,979.39
2018-09-27T00:11:08.818Z,979.37
2018-09-27T00:12:18.679Z,979.4
2018-09-27T00:13:28.260Z,979.39
2018-09-27T00:14:38.394Z,979.36
2018-09-27T00:15:48.537Z,979.33
2018-09-27T00:16:58.398Z,979.25
2018-09-27T00:18:07.985Z,979.31
2018-09-27T00:19:17.859Z,979.27
2018-09-27T00:20:30.123Z,979.22
2018-09-27T00:21:39.986Z,979.22
2018-09-27T00:22:50.126Z,979.2
2018-09-27T00:24:00.269Z,979.26
2018-09-27T00:25:09.305Z,979.27
2018-09-27T00:26:18.888Z,979.36
2018-09-27T00:27:28.747Z,979.39
2018-09-27T00:28:38.878Z,979.38
2018-09-27T00:29:48.771Z,979.38
2018-09-27T00:30:58.907Z,979.46
2018-09-27T00:32:08.216Z,979.53
2018-09-27T00:33:18.360Z,979.48
2018-09-27T00:34:28.218Z,979.48
2018-09-27T00:35:37.801Z,979.58
2018-09-27T00:36:47.933Z,979.59
2018-09-27T00:37:58.062Z,979.61
2018-09-27T00:39:07.919Z,979.63
2018-09-27T00:40:17.511Z,979.6
2018-09-27T00:41:27.647Z,979.63
2018-09-27T00:42:37.776Z,979.56
2018-09-27T00:43:47.916Z,979.54
2018-09-27T00:44:57.221Z,979.58
2018-09-27T00:46:06.527Z,979.57
2018-09-27T00:47:16.655Z,979.54
2018-09-27T00:48:26.508Z,979.51
2018-09-27T00:49:36.368Z,979.49
2018-09-27T00:50:46.508Z,979.49
2018-09-27T00:51:56.682Z,979.47
2018-09-27T00:53:06.538Z,979.41
2018-09-27T00:54:16.391Z,979.54
2018-09-27T00:55:26.297Z,979.55
2018-09-27T00:56:36.427Z,979.57
2018-09-27T00:57:46.288Z,979.54
2018-09-27T00:58:56.423Z,979.49
2018-09-27T01:00:06.554Z,979.54
2018-09-27T01:01:16.734Z,979.43
2018-09-27T01:02:26.314Z,979.52
2018-09-27T01:03:36.167Z,979.44
2018-09-27T01:04:46.021Z,979.45
2018-09-27T01:05:56.150Z,979.37
2018-09-27T01:07:06.060Z,979.37
2018-09-27T01:08:15.915Z,979.39
2018-09-27T01:09:26.047Z,979.42
2018-09-27T01:10:35.906Z,979.43
2018-09-27T01:11:46.039Z,979.49
2018-09-27T01:12:55.893Z,979.44
2018-09-27T01:14:06.022Z,979.43
2018-09-27T01:15:15.877Z,979.49
2018-09-27T01:16:26.009Z,979.44
2018-09-27T01:17:35.868Z,979.47
2018-09-27T01:18:46.000Z,979.48
2018-09-27T01:19:55.879Z,979.5
2018-09-27T01:21:06.012Z,979.45
2018-09-27T01:22:15.871Z,979.53
2018-09-27T01:23:26.020Z,979.56
2018-09-27T01:24:36.199Z,979.52
2018-09-27T01:25:46.057Z,979.51
2018-09-27T01:26:56.186Z,979.5
2018-09-27T01:28:06.318Z,979.62
2018-09-27T01:29:15.901Z,979.63
2018-09-27T01:30:25.841Z,979.66
2018-09-27T01:31:35.751Z,979.64
2018-09-27T01:32:45.894Z,979.6
2018-09-27T01:33:56.031Z,979.68
2018-09-27T01:35:05.886Z,979.7
2018-09-27T01:36:16.066Z,979.7
2018-09-27T01:37:26.203Z,979.61
2018-09-27T01:38:36.340Z,979.68
2018-09-27T01:39:46.193Z,979.63
2018-09-27T01:40:56.325Z,979.66
2018-09-27T01:42:06.513Z,979.65
2018-09-27T01:43:16.100Z,979.71
2018-09-27T01:44:25.969Z,979.75
2018-09-27T01:45:36.109Z,979.77
2018-09-27T01:46:46.257Z,979.83
2018-09-27T01:47:56.426Z,979.77
2018-09-27T01:49:06.290Z,979.85
2018-09-27T01:50:16.156Z,979.85
2018-09-27T01:51:26.023Z,979.78
2018-09-27T01:52:35.606Z,979.81
2018-09-27T01:53:45.461Z,979.78
2018-09-27T01:54:54.769Z,979.77
2018-09-27T01:56:04.643Z,979.78
2018-09-27T01:57:14.498Z,979.9
2018-09-27T01:58:24.352Z,979.88
2018-09-27T01:59:34.484Z,979.9
2018-09-27T02:00:44.614Z,979.88
2018-09-27T02:01:54.793Z,980.03
2018-09-27T02:03:04.375Z,980
2018-09-27T02:04:14.240Z,980.06
2018-09-27T02:05:24.417Z,980.07
2018-09-27T02:06:34.560Z,980.08
2018-09-27T02:07:44.697Z,980.01
2018-09-27T02:08:54.828Z,980.02
2018-09-27T02:10:04.960Z,980.11
2018-09-27T02:11:14.817Z,980.13
2018-09-27T02:12:24.943Z,980.13
2018-09-27T02:13:35.072Z,980.06
2018-09-27T02:14:44.650Z,980.07
2018-09-27T02:15:54.779Z,980.07
2018-09-27T02:17:04.635Z,980.09
2018-09-27T02:18:14.219Z,980.13
2018-09-27T02:19:24.392Z,980.2
2018-09-27T02:20:34.521Z,980.19
2018-09-27T02:21:44.376Z,980.26
2018-09-27T02:22:54.284Z,980.19
2018-09-27T02:24:04.416Z,980.12
2018-09-27T02:25:14.276Z,980.11
2018-09-27T02:26:24.411Z,980.13
2018-09-27T02:27:34.270Z,980.25
2018-09-27T02:28:44.125Z,980.17
2018-09-27T02:29:53.988Z,980.13
2018-09-27T02:31:03.845Z,980.14
2018-09-27T02:32:13.747Z,980.12
2018-09-27T02:33:23.885Z,980.1
2018-09-27T02:34:38.002Z,980.25
2018-09-27T02:35:48.133Z,980.21
2018-09-27T02:36:58.269Z,980.22
2018-09-27T02:38:08.414Z,980.26
2018-09-27T02:39:18.549Z,980.19
2018-09-27T02:40:28.763Z,980.09
2018-09-27T02:41:38.899Z,980.11
2018-09-27T02:42:48.762Z,980.19
2018-09-27T02:43:58.684Z,980.2
2018-09-27T02:45:08.819Z,980.18
2018-09-27T02:46:18.961Z,980.18
2018-09-27T02:47:29.091Z,980.13
2018-09-27T02:48:39.231Z,980.21
2018-09-27T02:49:48.816Z,980.14
2018-09-27T02:50:58.123Z,980.16
2018-09-27T02:52:08.254Z,980.19
2018-09-27T02:53:18.381Z,980.2
2018-09-27T02:54:28.513Z,980.28
2018-09-27T02:55:38.656Z,980.29
2018-09-27T02:56:48.797Z,980.2
2018-09-27T02:57:58.934Z,980.13
2018-09-27T02:59:08.799Z,980.09
2018-09-27T03:00:18.659Z,980.06
2018-09-27T03:01:28.797Z,980.06
2018-09-27T03:02:38.655Z,980.05
2018-09-27T03:03:48.785Z,980.04
2018-09-27T03:04:58.641Z,980
2018-09-27T03:06:08.775Z,979.98
2018-09-27T03:07:18.642Z,980
2018-09-27T03:08:28.780Z,980.02
2018-09-27T03:09:38.971Z,980.06
2018-09-27T03:10:48.565Z,980.02
2018-09-27T03:11:58.487Z,980
2018-09-27T03:13:08.350Z,980
2018-09-27T03:14:18.489Z,980.05
2018-09-27T03:15:28.628Z,980.07
2018-09-27T03:16:38.800Z,980.04
2018-09-27T03:17:48.939Z,980.03
2018-09-27T03:18:58.800Z,980.06
2018-09-27T03:20:08.660Z,980.02
2018-09-27T03:21:18.520Z,980.01
2018-09-27T03:22:28.103Z,979.96
2018-09-27T03:23:37.962Z,980.02
2018-09-27T03:24:48.136Z,980.01
2018-09-27T03:25:58.284Z,980.03
2018-09-27T03:27:08.467Z,980.03
2018-09-27T03:28:17.774Z,980.07
2018-09-27T03:29:27.355Z,980.03
2018-09-27T03:30:37.481Z,980.01
2018-09-27T03:31:47.521Z,980.01
2018-09-27T03:32:57.734Z,979.96
2018-09-27T03:34:07.775Z,979.94
2018-09-27T03:35:17.824Z,979.95
2018-09-27T03:36:27.870Z,979.98
2018-09-27T03:37:37.972Z,979.99
2018-09-27T03:38:48.156Z,980.07
2018-09-27T03:39:58.323Z,980.14
2018-09-27T03:41:08.139Z,980.13
2018-09-27T03:42:18.000Z,980.07
2018-09-27T03:43:28.129Z,980.06
2018-09-27T03:44:38.315Z,980.09
2018-09-27T03:45:48.182Z,980.12
2018-09-27T03:46:58.323Z,980.15
2018-09-27T03:48:08.183Z,980.16
2018-09-27T03:49:18.319Z,980.17
2018-09-27T03:50:27.949Z,980.16
2018-09-27T03:51:38.082Z,980.14
2018-09-27T03:52:47.947Z,980.12
2018-09-27T03:53:58.088Z,980.08
2018-09-27T03:55:07.943Z,980.06
2018-09-27T03:56:18.124Z,980.03
2018-09-27T03:57:27.982Z,980.06
2018-09-27T03:58:38.120Z,980.06
2018-09-27T03:59:47.982Z,980.08
2018-09-27T04:00:58.153Z,979.99
2018-09-27T04:02:08.070Z,980.01
2018-09-27T04:03:18.351Z,979.99
2018-09-27T04:04:28.677Z,980.01
2018-09-27T04:05:38.807Z,980.03
2018-09-27T04:06:48.943Z,980.06
2018-09-27T04:07:59.131Z,980.07
2018-09-27T04:09:08.985Z,980.09
2018-09-27T04:10:18.845Z,980.14
2018-09-27T04:11:28.975Z,980.17
2018-09-27T04:12:39.207Z,980.24
2018-09-27T04:13:49.615Z,980.24
2018-09-27T04:14:59.482Z,980.16
2018-09-27T04:16:09.346Z,980.2
2018-09-27T04:17:19.204Z,980.2
2018-09-27T04:18:28.781Z,980.16
2018-09-27T04:19:40.638Z,980.13
2018-09-27T04:20:50.771Z,980.04
2018-09-27T04:22:00.910Z,980.03
2018-09-27T04:23:11.056Z,980.04
2018-09-27T04:24:20.954Z,980.1
2018-09-27T04:25:31.145Z,980.2
2018-09-27T04:26:41.279Z,980.18
2018-09-27T04:27:51.469Z,980.2
2018-09-27T04:29:01.897Z,980.24
2018-09-27T04:30:11.483Z,980.19
2018-09-27T04:31:21.389Z,980.21
2018-09-27T04:32:31.255Z,980.22
2018-09-27T04:33:41.410Z,980.26
2018-09-27T04:34:52.087Z,980.27
2018-09-27T04:36:02.230Z,980.23
2018-09-27T04:37:12.141Z,980.28
2018-09-27T04:38:22.003Z,980.25
2018-09-27T04:39:32.143Z,980.24
2018-09-27T04:40:42.469Z,980.24
2018-09-27T04:41:52.663Z,980.22
2018-09-27T04:43:02.304Z,980.24
2018-09-27T04:44:12.167Z,980.18
2018-09-27T04:45:22.034Z,980.17
2018-09-27T04:46:32.208Z,980.18
2018-09-27T04:47:42.562Z,980.19
2018-09-27T04:48:52.742Z,980.11
2018-09-27T04:50:02.328Z,980.08
2018-09-27T04:51:11.904Z,980.05
2018-09-27T04:52:22.019Z,980
2018-09-27T04:53:32.047Z,980.02
2018-09-27T04:54:41.853Z,979.93
2018-09-27T04:55:51.610Z,979.88
2018-09-27T04:57:01.637Z,979.94
2018-09-27T04:58:11.136Z,979.9
2018-09-27T04:59:20.905Z,979.89
2018-09-27T05:00:30.989Z,979.9
2018-09-27T05:01:41.017Z,979.91
2018-09-27T05:02:50.779Z,979.92
2018-09-27T05:04:00.278Z,979.9
2018-09-27T05:05:10.330Z,979.86
2018-09-27T05:06:19.616Z,979.88
2018-09-27T05:07:30.168Z,979.9
2018-09-27T05:08:39.658Z,979.92
2018-09-27T05:09:49.693Z,979.86
2018-09-27T05:10:59.182Z,979.84
2018-09-27T05:12:09.264Z,979.88
2018-09-27T05:13:19.030Z,979.91
2018-09-27T05:14:28.527Z,979.89
2018-09-27T05:15:38.585Z,979.9
2018-09-27T05:16:48.727Z,979.87
2018-09-27T05:17:58.494Z,979.89
2018-09-27T05:19:08.525Z,979.83
2018-09-27T05:20:18.057Z,979.84
2018-09-27T05:21:28.108Z,979.79
2018-09-27T05:22:37.543Z,979.78
2018-09-27T05:23:47.632Z,979.78
2018-09-27T05:24:57.665Z,979.78
2018-09-27T05:26:06.891Z,979.75
2018-09-27T05:27:16.937Z,979.74
2018-09-27T05:28:27.094Z,979.73
2018-09-27T05:29:36.902Z,979.73
2018-09-27T05:30:46.934Z,979.74
2018-09-27T05:31:56.707Z,979.69
2018-09-27T05:33:06.195Z,979.65
2018-09-27T05:34:15.956Z,979.69
2018-09-27T05:35:26.046Z,979.73
2018-09-27T05:36:36.076Z,979.78
2018-09-27T05:37:46.101Z,979.78
2018-09-27T05:38:56.133Z,979.8
2018-09-27T05:40:06.161Z,979.8
2018-09-27T05:41:16.238Z,979.8
2018-09-27T05:42:25.732Z,979.75
2018-09-27T05:43:35.761Z,979.7
2018-09-27T05:44:45.796Z,979.69
2018-09-27T05:45:55.821Z,979.62
2018-09-27T05:47:05.627Z,979.64
2018-09-27T05:48:15.129Z,979.56
2018-09-27T05:49:25.158Z,979.57
2018-09-27T05:50:35.187Z,979.52
2018-09-27T05:51:44.939Z,979.54
2018-09-27T05:52:54.485Z,979.55
2018-09-27T05:54:04.517Z,979.58
2018-09-27T05:55:14.275Z,979.57
2018-09-27T05:56:24.309Z,979.61
2018-09-27T05:57:34.107Z,979.54
2018-09-27T05:58:44.380Z,979.48
2018-09-27T05:59:53.876Z,979.42
2018-09-27T06:01:03.646Z,979.42
2018-09-27T06:02:12.921Z,979.41
2018-09-27T06:03:22.725Z,979.37
2018-09-27T06:04:33.035Z,979.39
2018-09-27T06:05:42.525Z,979.49
2018-09-27T06:06:52.553Z,979.57
2018-09-27T06:08:02.048Z,979.55
2018-09-27T06:09:11.562Z,979.58
2018-09-27T06:10:21.379Z,979.6
2018-09-27T06:11:31.444Z,979.61
2018-09-27T06:12:41.698Z,979.58
2018-09-27T06:13:51.723Z,979.61
2018-09-27T06:15:01.755Z,979.65
2018-09-27T06:16:11.842Z,979.65
2018-09-27T06:17:21.599Z,979.65
2018-09-27T06:18:31.627Z,979.66
2018-09-27T06:19:41.730Z,979.7
2018-09-27T06:20:51.764Z,979.77
2018-09-27T06:22:01.855Z,979.76
2018-09-27T06:23:11.882Z,979.76
2018-09-27T06:24:21.106Z,979.81
2018-09-27T06:25:31.135Z,979.77
2018-09-27T06:26:41.163Z,979.76
2018-09-27T06:27:50.658Z,979.77
2018-09-27T06:29:00.156Z,979.81
2018-09-27T06:30:09.919Z,979.8
2018-09-27T06:31:19.683Z,979.77
2018-09-27T06:32:29.716Z,979.72
2018-09-27T06:33:39.903Z,979.7
2018-09-27T06:34:49.538Z,979.7
2018-09-27T06:35:59.434Z,979.71
2018-09-27T06:37:08.667Z,979.68
2018-09-27T06:38:18.426Z,979.64
2018-09-27T06:39:28.370Z,979.62
2018-09-27T06:40:38.398Z,979.56
2018-09-27T06:41:48.160Z,979.58
2018-09-27T06:42:57.918Z,979.7
2018-09-27T06:44:07.682Z,979.72
2018-09-27T06:45:17.493Z,979.76
2018-09-27T06:46:27.283Z,979.74
2018-09-27T06:47:37.046Z,979.68
2018-09-27T06:48:46.922Z,979.69
2018-09-27T06:49:57.195Z,979.6
2018-09-27T06:51:10.640Z,979.67
2018-09-27T06:52:20.919Z,979.6
2018-09-27T06:53:30.970Z,979.69
2018-09-27T06:54:40.470Z,979.65
2018-09-27T06:55:51.007Z,979.63
2018-09-27T06:57:02.146Z,979.57
2018-09-27T06:58:12.173Z,979.56
2018-09-27T06:59:21.668Z,979.59
2018-09-27T07:00:31.693Z,979.58
2018-09-27T07:01:41.187Z,979.6
2018-09-27T07:02:51.268Z,979.66
2018-09-27T07:04:01.035Z,979.63
2018-09-27T07:05:10.530Z,979.6
2018-09-27T07:06:20.292Z,979.6
2018-09-27T07:07:30.057Z,979.66
2018-09-27T07:08:40.170Z,979.63
2018-09-27T07:09:49.785Z,979.68
2018-09-27T07:10:59.814Z,979.64
2018-09-27T07:12:09.468Z,979.56
2018-09-27T07:13:20.544Z,979.52
2018-09-27T07:14:30.654Z,979.5
2018-09-27T07:15:40.604Z,979.51
2018-09-27T07:16:50.863Z,979.45
2018-09-27T07:18:00.900Z,979.48
2018-09-27T07:19:10.937Z,979.42
2018-09-27T07:20:21.072Z,979.39
2018-09-27T07:21:30.814Z,979.37
2018-09-27T07:22:40.593Z,979.42
2018-09-27T07:23:50.628Z,979.33
2018-09-27T07:25:00.710Z,979.33
2018-09-27T07:26:10.481Z,979.38
2018-09-27T07:27:20.542Z,979.35
2018-09-27T07:28:30.309Z,979.3
2018-09-27T07:29:40.335Z,979.3
2018-09-27T07:30:50.363Z,979.36
2018-09-27T07:32:00.005Z,979.34
2018-09-27T07:33:09.780Z,979.32
2018-09-27T07:34:19.549Z,979.34
2018-09-27T07:35:29.574Z,979.32
2018-09-27T07:36:39.379Z,979.25
2018-09-27T07:37:49.515Z,979.25
2018-09-27T07:38:59.544Z,979.29
2018-09-27T07:40:09.308Z,979.22
2018-09-27T07:41:19.077Z,979.23
2018-09-27T07:42:28.571Z,979.2
2018-09-27T07:43:38.730Z,979.2
2018-09-27T07:44:48.491Z,979.31
2018-09-27T07:45:58.582Z,979.29
2018-09-27T07:47:08.351Z,979.32
2018-09-27T07:48:17.574Z,979.33
2018-09-27T07:49:27.829Z,979.23
2018-09-27T07:50:37.667Z,979.18
2018-09-27T07:51:47.676Z,979.2
2018-09-27T07:52:57.418Z,979.21
2018-09-27T07:54:07.183Z,979.17
2018-09-27T07:55:17.478Z,979.13
2018-09-27T07:56:27.276Z,979.11
2018-09-27T07:57:37.659Z,979.05
2018-09-27T07:58:47.428Z,979.07
2018-09-27T07:59:57.456Z,979.03
2018-09-27T08:01:07.384Z,979.01
2018-09-27T08:02:17.432Z,979.05
2018-09-27T08:03:27.354Z,978.99
2018-09-27T08:04:37.120Z,978.91
2018-09-27T08:05:46.885Z,978.81
2018-09-27T08:06:56.977Z,978.79
2018-09-27T08:08:07.031Z,978.75
2018-09-27T08:09:16.794Z,978.74
2018-09-27T08:10:26.842Z,978.69
2018-09-27T08:11:36.919Z,978.7
2018-09-27T08:12:47.370Z,978.76
2018-09-27T08:13:57.128Z,978.83
2018-09-27T08:15:06.902Z,978.91
2018-09-27T08:16:16.400Z,978.87
2018-09-27T08:17:26.456Z,978.85
2018-09-27T08:18:36.528Z,978.81
2018-09-27T08:19:46.558Z,978.78
2018-09-27T08:20:56.140Z,978.8
2018-09-27T08:22:07.161Z,978.73
2018-09-27T08:23:17.187Z,978.73
2018-09-27T08:24:26.729Z,978.74
2018-09-27T08:25:36.492Z,978.75
2018-09-27T08:26:46.534Z,978.8
2018-09-27T08:27:56.580Z,978.77
2018-09-27T08:29:06.616Z,978.83
2018-09-27T08:30:16.432Z,978.79
2018-09-27T08:31:26.348Z,978.74
2018-09-27T08:32:36.499Z,978.7
2018-09-27T08:33:46.952Z,978.62
2018-09-27T08:34:56.990Z,978.59
2018-09-27T08:36:07.132Z,978.57
2018-09-27T08:37:17.172Z,978.62
2018-09-27T08:38:26.981Z,978.57
2018-09-27T08:39:36.962Z,978.61
2018-09-27T08:40:46.721Z,978.66
2018-09-27T08:41:56.745Z,978.6
2018-09-27T08:43:06.248Z,978.62
2018-09-27T08:44:16.003Z,978.58
2018-09-27T08:45:26.383Z,978.59
2018-09-27T08:46:37.481Z,978.56
2018-09-27T08:47:47.251Z,978.55
2018-09-27T08:48:57.011Z,978.54
2018-09-27T08:50:06.503Z,978.53
2018-09-27T08:51:16.268Z,978.53
2018-09-27T08:52:26.109Z,978.53
2018-09-27T08:53:35.867Z,978.51
2018-09-27T08:54:45.647Z,978.47
2018-09-27T08:55:55.791Z,978.43
2018-09-27T08:57:06.811Z,978.41
2018-09-27T08:58:16.612Z,978.42
2018-09-27T08:59:26.643Z,978.39
2018-09-27T09:00:36.405Z,978.36
2018-09-27T09:01:46.189Z,978.39
2018-09-27T09:02:56.222Z,978.44
2018-09-27T09:04:05.989Z,978.4
2018-09-27T09:05:15.758Z,978.38
2018-09-27T09:06:25.812Z,978.4
2018-09-27T09:07:35.403Z,978.36
2018-09-27T09:08:45.747Z,978.37
2018-09-27T09:09:55.786Z,978.38
2018-09-27T09:11:05.341Z,978.34
2018-09-27T09:12:15.438Z,978.32
2018-09-27T09:13:25.751Z,978.36
2018-09-27T09:14:35.735Z,978.43
2018-09-27T09:15:45.230Z,978.42
2018-09-27T09:16:55.004Z,978.46
2018-09-27T09:18:04.793Z,978.5
2018-09-27T09:19:14.282Z,978.49
2018-09-27T09:20:24.333Z,978.49
2018-09-27T09:21:33.886Z,978.49
2018-09-27T09:22:44.013Z,978.49
2018-09-27T09:23:54.058Z,978.46
2018-09-27T09:25:03.564Z,978.5
2018-09-27T09:26:13.335Z,978.48
2018-09-27T09:27:23.372Z,978.45
2018-09-27T09:28:33.328Z,978.52
2018-09-27T09:29:43.176Z,978.62
2018-09-27T09:30:53.526Z,978.61
2018-09-27T09:32:03.565Z,978.6
2018-09-27T09:33:13.326Z,978.57
2018-09-27T09:34:23.093Z,978.58
2018-09-27T09:35:33.143Z,978.54
2018-09-27T09:36:43.603Z,978.54
2018-09-27T09:37:53.368Z,978.47
2018-09-27T09:39:03.414Z,978.45
2018-09-27T09:40:13.191Z,978.47
2018-09-27T09:41:22.969Z,978.47
2018-09-27T09:42:32.994Z,978.48
2018-09-27T09:43:42.760Z,978.44
2018-09-27T09:44:52.790Z,978.47
2018-09-27T09:46:02.282Z,978.42
2018-09-27T09:47:11.511Z,978.42
2018-09-27T09:48:21.542Z,978.35
2018-09-27T09:49:31.310Z,978.4
2018-09-27T09:50:41.071Z,978.41
2018-09-27T09:51:51.107Z,978.43
2018-09-27T09:53:01.142Z,978.39
2018-09-27T09:54:10.635Z,978.41
2018-09-27T09:55:20.664Z,978.36
2018-09-27T09:56:30.693Z,978.35
2018-09-27T09:57:40.458Z,978.36
2018-09-27T09:58:50.493Z,978.38
2018-09-27T10:00:00.253Z,978.38
2018-09-27T10:01:09.225Z,978.38
2018-09-27T10:02:19.029Z,978.4
2018-09-27T10:03:29.497Z,978.33
2018-09-27T10:04:39.539Z,978.32
2018-09-27T10:05:49.565Z,978.32
2018-09-27T10:06:59.590Z,978.29
2018-09-27T10:08:09.626Z,978.27
2018-09-27T10:09:19.385Z,978.27
2018-09-27T10:10:28.617Z,978.25
2018-09-27T10:11:38.385Z,978.22
2018-09-27T10:12:47.616Z,978.26
2018-09-27T10:13:57.110Z,978.23
2018-09-27T10:15:06.872Z,978.26
2018-09-27T10:16:16.639Z,978.27
2018-09-27T10:17:26.410Z,978.31
2018-09-27T10:18:36.178Z,978.31
2018-09-27T10:19:45.942Z,978.2
2018-09-27T10:20:55.757Z,978.19
2018-09-27T10:22:05.592Z,978.16
2018-09-27T10:23:15.899Z,978.14
2018-09-27T10:24:25.948Z,978.15
2018-09-27T10:25:35.449Z,978.1
2018-09-27T10:26:45.486Z,978.08
2018-09-27T10:27:55.254Z,978.02
2018-09-27T10:29:05.023Z,977.98
2018-09-27T10:30:15.057Z,977.91
2018-09-27T10:31:24.820Z,977.88
2018-09-27T10:32:34.581Z,977.82
2018-09-27T10:33:44.614Z,977.8
2018-09-27T10:34:54.659Z,977.83
2018-09-27T10:36:04.421Z,977.86
2018-09-27T10:37:14.452Z,977.88
2018-09-27T10:38:24.479Z,977.85
2018-09-27T10:39:34.237Z,977.77
2018-09-27T10:40:43.730Z,977.74
2018-09-27T10:41:53.492Z,977.76
2018-09-27T10:43:03.522Z,977.74
2018-09-27T10:44:13.598Z,977.76
2018-09-27T10:45:23.639Z,977.71
2018-09-27T10:46:33.670Z,977.73
2018-09-27T10:47:43.701Z,977.72
2018-09-27T10:48:53.736Z,977.71
2018-09-27T10:50:03.498Z,977.71
2018-09-27T10:51:13.041Z,977.61
2018-09-27T10:52:22.421Z,977.59
2018-09-27T10:53:32.185Z,977.54
2018-09-27T10:54:42.215Z,977.51
2018-09-27T10:55:51.722Z,977.52
2018-09-27T10:57:00.971Z,977.47
2018-09-27T10:58:10.993Z,977.41
2018-09-27T10:59:21.023Z,977.39
2018-09-27T11:00:31.181Z,977.38
2018-09-27T11:01:41.207Z,977.32
2018-09-27T11:02:50.710Z,977.27
2018-09-27T11:04:00.213Z,977.23
2018-09-27T11:05:10.251Z,977.23
2018-09-27T11:06:20.017Z,977.2
2018-09-27T11:07:29.787Z,977.17
2018-09-27T11:08:39.831Z,977.13
2018-09-27T11:09:49.057Z,977.12
2018-09-27T11:10:59.175Z,977.12
2018-09-27T11:12:09.053Z,977.1
2018-09-27T11:13:18.863Z,977.12
2018-09-27T11:14:28.631Z,977.02
2018-09-27T11:15:38.392Z,976.99
2018-09-27T11:16:48.431Z,976.97
2018-09-27T11:17:58.190Z,976.96
2018-09-27T11:19:07.516Z,976.91
2018-09-27T11:20:17.276Z,976.9
2018-09-27T11:21:27.041Z,976.88
2018-09-27T11:22:36.805Z,976.85
2018-09-27T11:23:46.854Z,976.82
2018-09-27T11:24:56.717Z,976.81
2018-09-27T11:26:06.483Z,976.8
2018-09-27T11:27:16.512Z,976.77
2018-09-27T11:28:26.111Z,976.76
2018-09-27T11:29:36.151Z,976.8
2018-09-27T11:30:46.289Z,976.8
2018-09-27T11:31:56.332Z,976.85
2018-09-27T11:33:06.426Z,976.83
2018-09-27T11:34:15.759Z,976.8
2018-09-27T11:35:25.790Z,976.77
2018-09-27T11:36:35.595Z,976.75
2018-09-27T11:37:45.103Z,976.69
2018-09-27T11:38:55.136Z,976.65
2018-09-27T11:40:04.916Z,976.67
2018-09-27T11:41:14.416Z,976.67
2018-09-27T11:42:24.683Z,976.69
2018-09-27T11:43:34.552Z,976.65
2018-09-27T11:44:44.316Z,976.65
2018-09-27T11:45:54.344Z,976.62
2018-09-27T11:47:04.102Z,976.6
2018-09-27T11:48:13.973Z,976.48
2018-09-27T11:49:23.792Z,976.36
2018-09-27T11:50:34.545Z,976.33
2018-09-27T11:51:44.050Z,976.35
2018-09-27T11:52:53.546Z,976.36
2018-09-27T11:54:03.188Z,976.34
2018-09-27T11:55:13.343Z,976.37
2018-09-27T11:56:23.167Z,976.34
2018-09-27T11:57:33.222Z,976.33
2018-09-27T11:58:43.255Z,976.32
2018-09-27T11:59:53.486Z,976.27
2018-09-27T12:01:03.530Z,976.18
2018-09-27T12:02:13.579Z,976.16
2018-09-27T12:03:23.635Z,976.16
2018-09-27T12:04:33.671Z,976.14
2018-09-27T12:05:43.527Z,976.14
2018-09-27T12:06:53.697Z,976.12
2018-09-27T12:08:03.728Z,976.09
2018-09-27T12:09:13.490Z,976.05
2018-09-27T12:10:23.248Z,976.04
2018-09-27T12:11:33.377Z,976
2018-09-27T12:12:42.867Z,975.96
2018-09-27T12:13:52.360Z,975.94
2018-09-27T12:15:01.861Z,975.9
2018-09-27T12:16:11.897Z,975.89
2018-09-27T12:17:22.038Z,975.88
2018-09-27T12:18:32.254Z,975.8
2018-09-27T12:19:41.847Z,975.74
2018-09-27T12:20:52.254Z,975.69
2018-09-27T12:22:02.302Z,975.68
2018-09-27T12:23:12.392Z,975.7
2018-09-27T12:24:22.552Z,975.71
2018-09-27T12:25:32.336Z,975.67
2018-09-27T12:26:42.432Z,975.64
2018-09-27T12:27:52.194Z,975.63
2018-09-27T12:29:02.006Z,975.63
2018-09-27T12:30:11.237Z,975.59
2018-09-27T12:31:21.270Z,975.59
2018-09-27T12:32:31.295Z,975.5
2018-09-27T12:33:41.327Z,975.42
2018-09-27T12:34:51.265Z,975.44
2018-09-27T12:36:01.033Z,975.43
2018-09-27T12:37:10.792Z,975.46
2018-09-27T12:38:20.306Z,975.42
2018-09-27T12:39:30.779Z,975.37
2018-09-27T12:40:41.409Z,975.32
2018-09-27T12:41:51.939Z,975.29
2018-09-27T12:43:03.310Z,975.22
2018-09-27T12:44:12.995Z,975.21
2018-09-27T12:45:22.826Z,975.19
2018-09-27T12:46:33.704Z,975.19
2018-09-27T12:47:43.736Z,975.16
2018-09-27T12:48:53.308Z,975.15
2018-09-27T12:50:02.625Z,975.07
2018-09-27T12:51:12.491Z,975.08
2018-09-27T12:52:23.585Z,975.08
2018-09-27T12:53:34.279Z,974.98
2018-09-27T12:54:44.043Z,974.99
2018-09-27T12:55:53.584Z,974.94
2018-09-27T12:57:03.562Z,974.93
2018-09-27T12:58:13.718Z,974.91
2018-09-27T12:59:23.561Z,974.91
2018-09-27T13:00:33.597Z,974.89
2018-09-27T13:01:43.464Z,974.87
2018-09-27T13:02:53.617Z,974.84
2018-09-27T13:04:03.783Z,974.73
2018-09-27T13:05:13.587Z,974.68
2018-09-27T13:06:23.611Z,974.65
2018-09-27T13:07:32.843Z,974.56
2018-09-27T13:08:42.634Z,974.57
2018-09-27T13:09:53.013Z,974.58
2018-09-27T13:11:03.503Z,974.65
2018-09-27T13:12:12.806Z,974.71
2018-09-27T13:13:23.136Z,974.65
2018-09-27T13:14:34.543Z,974.61
2018-09-27T13:15:44.247Z,974.55
2018-09-27T13:16:54.321Z,974.57
2018-09-27T13:18:04.474Z,974.58
2018-09-27T13:19:14.512Z,974.55
2018-09-27T13:20:24.906Z,974.49
2018-09-27T13:21:35.037Z,974.46
2018-09-27T13:22:45.490Z,974.47
2018-09-27T13:23:55.616Z,974.38
2018-09-27T13:25:05.723Z,974.36
2018-09-27T13:26:15.500Z,974.35
2018-09-27T13:27:25.620Z,974.31
2018-09-27T13:28:35.701Z,974.33
2018-09-27T13:29:45.190Z,974.25
2018-09-27T13:30:55.234Z,974.25
2018-09-27T13:32:05.575Z,974.2
2018-09-27T13:33:15.874Z,974.25
2018-09-27T13:34:25.907Z,974.2
2018-09-27T13:35:35.408Z,974.15
2018-09-27T13:36:44.903Z,974.18
2018-09-27T13:37:54.503Z,974.15
2018-09-27T13:39:04.396Z,974.14
2018-09-27T13:40:14.882Z,974.12
2018-09-27T13:41:24.646Z,974.09
2018-09-27T13:42:34.140Z,974.05
2018-09-27T13:43:43.629Z,974.05
2018-09-27T13:44:53.533Z,974.02
2018-09-27T13:46:03.495Z,973.98
2018-09-27T13:47:13.254Z,974.01
2018-09-27T13:48:23.020Z,973.96
2018-09-27T13:49:33.053Z,973.97
2018-09-27T13:50:43.154Z,973.97
2018-09-27T13:51:52.710Z,973.93
2018-09-27T13:53:02.214Z,973.89
2018-09-27T13:54:11.169Z,973.91
2018-09-27T13:55:21.197Z,973.9
2018-09-27T13:56:31.286Z,973.89
2018-09-27T13:57:41.330Z,973.88
2018-09-27T13:58:51.360Z,973.85
2018-09-27T14:00:01.390Z,973.84
2018-09-27T14:01:10.624Z,973.82
2018-09-27T14:02:20.172Z,973.79
2018-09-27T14:03:30.208Z,973.77
2018-09-27T14:04:39.708Z,973.69
2018-09-27T14:05:49.476Z,973.69
2018-09-27T14:06:59.241Z,973.64
2018-09-27T14:08:09.054Z,973.62
2018-09-27T14:09:18.280Z,973.67
2018-09-27T14:10:27.788Z,973.66
2018-09-27T14:11:37.824Z,973.66
2018-09-27T14:12:47.857Z,973.63
2018-09-27T14:13:57.938Z,973.63
2018-09-27T14:15:07.984Z,973.59
2018-09-27T14:16:17.219Z,973.62
2018-09-27T14:17:27.259Z,973.59
2018-09-27T14:18:37.300Z,973.63
2018-09-27T14:19:47.127Z,973.65
2018-09-27T14:20:56.897Z,973.58
2018-09-27T14:22:06.659Z,973.56
2018-09-27T14:23:16.700Z,973.54
2018-09-27T14:24:26.193Z,973.49
2018-09-27T14:25:35.446Z,973.5
2018-09-27T14:26:45.207Z,973.49
2018-09-27T14:27:54.969Z,973.4
2018-09-27T14:29:04.198Z,973.4
2018-09-27T14:30:14.234Z,973.38
2018-09-27T14:31:24.315Z,973.35
2018-09-27T14:32:33.814Z,973.31
2018-09-27T14:33:43.582Z,973.32
2018-09-27T14:34:53.611Z,973.25
2018-09-27T14:36:03.380Z,973.27